createdAt,value
2022-08-24T00:01:55.825Z,12.30
2022-08-24T00:04:24.559Z,12.30
2022-08-24T00:06:52.292Z,12.30
2022-08-24T00:09:20.311Z,12.30
2022-08-24T00:11:48.389Z,12.30
2022-08-24T00:14:17.125Z,12.30
2022-08-24T00:16:46.261Z,12.20
2022-08-24T00:19:13.911Z,12.20
2022-08-24T00:21:41.713Z,12.10
2022-08-24T00:24:10.297Z,12.00
2022-08-24T00:26:38.686Z,11.80
2022-08-24T00:29:07.750Z,11.70
2022-08-24T00:31:36.697Z,11.70
2022-08-24T00:34:03.800Z,11.70
2022-08-24T00:36:31.839Z,11.70
2022-08-24T00:38:59.632Z,11.80
2022-08-24T00:41:28.956Z,11.90
2022-08-24T00:44:00.506Z,11.80
2022-08-24T00:46:53.313Z,11.70
2022-08-24T00:49:40.374Z,11.60
2022-08-24T00:52:40.427Z,11.60
2022-08-24T00:55:26.638Z,11.40
2022-08-24T00:58:02.173Z,11.40
2022-08-24T01:00:53.449Z,11.40
2022-08-24T01:03:22.559Z,11.30
2022-08-24T01:05:50.921Z,11.20
2022-08-24T01:08:21.324Z,11.20
2022-08-24T01:10:53.345Z,11.20
2022-08-24T01:13:23.044Z,11.20
2022-08-24T01:15:58.185Z,11.20
2022-08-24T01:18:46.495Z,11.10
2022-08-24T01:21:32.590Z,11.10
2022-08-24T01:24:06.340Z,11.00
2022-08-24T01:26:40.212Z,11.00
2022-08-24T01:29:13.516Z,11.00
2022-08-24T01:31:42.093Z,11.00
2022-08-24T01:34:13.366Z,11.00
2022-08-24T01:37:00.388Z,10.90
2022-08-24T01:39:36.076Z,10.80
2022-08-24T01:42:04.231Z,10.70
2022-08-24T01:44:34.617Z,10.70
2022-08-24T01:47:07.275Z,10.60
2022-08-24T01:49:42.606Z,10.60
2022-08-24T01:52:13.949Z,10.60
2022-08-24T01:54:43.528Z,10.50
2022-08-24T01:57:11.518Z,10.50
2022-08-24T01:59:44.826Z,10.50
2022-08-24T02:02:27.091Z,10.50
2022-08-24T02:04:55.790Z,10.50
2022-08-24T02:07:23.178Z,10.40
2022-08-24T02:09:51.697Z,10.40
2022-08-24T02:12:20.514Z,10.30
2022-08-24T02:14:48.689Z,10.30
2022-08-24T02:17:15.998Z,10.40
2022-08-24T02:19:44.142Z,10.40
2022-08-24T02:22:12.939Z,10.40
2022-08-24T02:24:40.690Z,10.60
2022-08-24T02:27:09.075Z,10.60
2022-08-24T02:29:36.910Z,10.60
2022-08-24T02:32:07.064Z,10.50
2022-08-24T02:34:35.100Z,10.40
2022-08-24T02:37:03.251Z,10.40
2022-08-24T02:39:31.204Z,10.40
2022-08-24T02:42:02.701Z,10.20
2022-08-24T02:44:30.732Z,10.20
2022-08-24T02:46:58.710Z,10.10
2022-08-24T02:49:25.760Z,10.20
2022-08-24T02:51:54.019Z,10.20
2022-08-24T02:54:22.933Z,10.20
2022-08-24T02:56:52.877Z,10.20
2022-08-24T02:59:22.527Z,10.10
2022-08-24T03:01:51.574Z,10.10
2022-08-24T03:04:21.363Z,10.00
2022-08-24T03:06:48.915Z,10.00
2022-08-24T03:09:18.269Z,10.00
2022-08-24T03:11:46.736Z,10.00
2022-08-24T03:14:15.072Z,9.90
2022-08-24T03:16:45.331Z,9.90
2022-08-24T03:19:15.218Z,9.90
2022-08-24T03:21:43.732Z,9.90
2022-08-24T03:24:13.170Z,9.90
2022-08-24T03:26:43.651Z,9.90
2022-08-24T03:29:15.727Z,9.90
2022-08-24T03:31:44.496Z,9.90
2022-08-24T03:34:13.542Z,9.90
2022-08-24T03:36:46.718Z,9.80
2022-08-24T03:39:17.042Z,9.80
2022-08-24T03:41:44.729Z,9.80
2022-08-24T03:44:14.622Z,9.80
2022-08-24T03:46:42.171Z,9.80
2022-08-24T03:49:10.309Z,9.90
2022-08-24T03:51:39.147Z,10.00
2022-08-24T03:54:09.472Z,10.10
2022-08-24T03:56:39.310Z,10.00
2022-08-24T03:59:07.823Z,9.90
2022-08-24T04:01:40.351Z,9.80
2022-08-24T04:04:08.894Z,9.80
2022-08-24T04:06:38.470Z,9.70
2022-08-24T04:09:07.530Z,9.70
2022-08-24T04:11:41.318Z,9.60
2022-08-24T04:14:08.789Z,9.70
2022-08-24T04:16:59.238Z,9.60
2022-08-24T04:19:34.731Z,9.60
2022-08-24T04:22:03.243Z,9.60
2022-08-24T04:24:31.262Z,9.50
2022-08-24T04:27:02.099Z,9.50
2022-08-24T04:29:29.819Z,9.50
2022-08-24T04:31:59.176Z,9.50
2022-08-24T04:34:27.760Z,9.50
2022-08-24T04:36:56.210Z,9.50
2022-08-24T04:39:23.892Z,9.60
2022-08-24T04:42:17.679Z,9.60
2022-08-24T04:44:45.686Z,9.50
2022-08-24T04:47:14.737Z,9.50
2022-08-24T04:49:42.916Z,9.60
2022-08-24T04:52:11.194Z,9.70
2022-08-24T04:54:40.480Z,9.80
2022-08-24T04:57:18.173Z,9.90
2022-08-24T04:59:47.447Z,9.90
2022-08-24T05:02:14.942Z,9.80
2022-08-24T05:04:43.530Z,9.80
2022-08-24T05:07:12.341Z,9.80
2022-08-24T05:09:42.528Z,9.90
2022-08-24T05:12:10.330Z,10.00
2022-08-24T05:14:41.220Z,10.00
2022-08-24T05:17:09.313Z,10.00
2022-08-24T05:19:38.647Z,10.10
2022-08-24T05:22:05.791Z,10.20
2022-08-24T05:24:34.809Z,10.20
2022-08-24T05:27:02.872Z,10.30
2022-08-24T05:29:33.747Z,10.30
2022-08-24T05:32:04.176Z,10.40
2022-08-24T05:34:33.063Z,10.50
2022-08-24T05:37:00.830Z,10.50
2022-08-24T05:39:47.905Z,10.60
2022-08-24T05:42:15.912Z,10.70
2022-08-24T05:44:48.192Z,10.80
2022-08-24T05:47:22.045Z,10.90
2022-08-24T05:49:53.036Z,11.10
2022-08-24T05:52:22.710Z,11.30
2022-08-24T05:54:56.846Z,11.50
2022-08-24T05:57:31.174Z,11.70
2022-08-24T06:00:12.505Z,11.80
2022-08-24T06:02:53.119Z,12.00
2022-08-24T06:05:23.839Z,12.20
2022-08-24T06:07:51.875Z,12.40
2022-08-24T06:10:36.390Z,12.50
2022-08-24T06:13:06.150Z,12.70
2022-08-24T06:15:33.997Z,13.00
2022-08-24T06:18:00.948Z,13.30
2022-08-24T06:20:28.839Z,13.70
2022-08-24T06:22:57.172Z,14.00
2022-08-24T06:25:50.803Z,14.10
2022-08-24T06:28:19.389Z,14.10
2022-08-24T06:30:47.799Z,14.20
2022-08-24T06:33:26.122Z,14.30
2022-08-24T06:35:55.819Z,14.40
2022-08-24T06:38:23.875Z,14.40
2022-08-24T06:40:53.892Z,14.50
2022-08-24T06:43:22.829Z,14.50
2022-08-24T06:45:55.768Z,14.60
2022-08-24T06:48:31.040Z,14.70
2022-08-24T06:50:59.021Z,14.90
2022-08-24T06:53:27.579Z,15.00
2022-08-24T06:55:58.800Z,15.10
2022-08-24T06:58:28.808Z,15.20
2022-08-24T07:00:57.225Z,15.40
2022-08-24T07:03:26.762Z,15.50
2022-08-24T07:06:08.931Z,15.80
2022-08-24T07:08:43.877Z,16.00
2022-08-24T07:11:15.483Z,16.10
2022-08-24T07:13:49.447Z,16.30
2022-08-24T07:16:21.241Z,16.50
2022-08-24T07:18:53.783Z,16.60
2022-08-24T07:21:22.112Z,16.90
2022-08-24T07:23:56.132Z,17.10
2022-08-24T07:26:25.836Z,17.30
2022-08-24T07:29:05.154Z,17.60
2022-08-24T07:31:40.538Z,17.80
2022-08-24T07:34:17.477Z,18.00
2022-08-24T07:36:45.990Z,18.50
2022-08-24T07:39:14.280Z,19.30
2022-08-24T07:42:11.090Z,20.50
2022-08-24T07:44:33.009Z,21.70
2022-08-24T07:47:15.130Z,22.80
2022-08-24T07:49:48.219Z,23.50
2022-08-24T07:52:16.181Z,24.30
2022-08-24T07:54:45.135Z,24.70
2022-08-24T07:57:13.244Z,24.90
2022-08-24T07:59:42.251Z,25.20
2022-08-24T08:02:11.806Z,25.40
2022-08-24T08:04:41.895Z,26.00
2022-08-24T08:07:10.030Z,26.20
2022-08-24T08:09:39.637Z,26.30
2022-08-24T08:12:09.160Z,26.50
2022-08-24T08:14:40.139Z,26.50
2022-08-24T08:17:07.595Z,26.70
2022-08-24T08:19:35.163Z,26.60
2022-08-24T08:22:21.951Z,27.30
2022-08-24T08:25:19.309Z,27.60
2022-08-24T08:27:47.442Z,27.20
2022-08-24T08:30:15.738Z,27.30
2022-08-24T08:32:45.288Z,27.30
2022-08-24T08:35:14.308Z,26.90
2022-08-24T08:37:42.137Z,27.00
2022-08-24T08:40:28.462Z,26.90
2022-08-24T08:43:39.592Z,27.10
2022-08-24T08:46:44.305Z,27.00
2022-08-24T08:49:38.628Z,26.80
2022-08-24T08:52:43.398Z,27.20
2022-08-24T08:55:48.946Z,27.50
2022-08-24T08:59:01.687Z,27.70
2022-08-24T09:01:48.003Z,27.40
2022-08-24T09:05:05.114Z,27.80
2022-08-24T09:07:49.947Z,27.50
2022-08-24T09:10:50.472Z,27.80
2022-08-24T09:13:18.405Z,27.90
2022-08-24T09:16:33.478Z,28.00
2022-08-24T09:19:32.012Z,28.20
2022-08-24T09:22:18.465Z,28.30
2022-08-24T09:24:55.114Z,28.80
2022-08-24T09:28:14.892Z,28.80
2022-08-24T09:30:57.470Z,28.90
2022-08-24T09:33:43.106Z,28.70
2022-08-24T09:36:23.866Z,28.20
2022-08-24T09:39:11.692Z,28.40
2022-08-24T09:42:16.485Z,28.50
2022-08-24T09:45:00.235Z,28.50
2022-08-24T09:47:58.544Z,28.60
2022-08-24T09:50:41.283Z,28.90
2022-08-24T09:53:37.835Z,28.30
2022-08-24T09:56:12.141Z,28.70
2022-08-24T09:59:21.438Z,29.10
2022-08-24T10:02:17.273Z,29.50
2022-08-24T10:05:12.469Z,30.10
2022-08-24T10:07:58.112Z,30.50
2022-08-24T10:10:42.811Z,30.10
2022-08-24T10:13:28.198Z,29.90
2022-08-24T10:16:32.472Z,29.90
2022-08-24T10:19:34.482Z,30.60
2022-08-24T10:22:53.450Z,30.80
2022-08-24T10:25:51.164Z,29.20
2022-08-24T10:28:52.041Z,29.60
2022-08-24T10:31:27.002Z,29.60
2022-08-24T10:34:27.409Z,29.60
2022-08-24T10:36:57.746Z,29.90
2022-08-24T10:39:49.492Z,30.30
2022-08-24T10:43:00.892Z,30.70
2022-08-24T10:46:05.385Z,30.70
2022-08-24T10:48:33.409Z,30.60
2022-08-24T10:51:37.144Z,30.60
2022-08-24T10:54:04.931Z,31.00
2022-08-24T10:56:50.255Z,30.80
2022-08-24T10:59:22.931Z,30.40
2022-08-24T11:02:12.800Z,30.20
2022-08-24T11:04:41.763Z,30.30
2022-08-24T11:07:22.544Z,31.00
2022-08-24T11:09:56.958Z,30.70
2022-08-24T11:12:31.521Z,31.30
2022-08-24T11:15:02.844Z,31.60
2022-08-24T11:17:34.796Z,30.70
2022-08-24T11:20:02.971Z,30.60
2022-08-24T11:22:53.327Z,30.90
2022-08-24T11:25:27.742Z,31.90
2022-08-24T11:28:04.357Z,32.40
2022-08-24T11:30:37.531Z,32.00
2022-08-24T11:33:23.734Z,31.90
2022-08-24T11:35:52.158Z,32.30
2022-08-24T11:38:30.604Z,32.20
2022-08-24T11:41:26.029Z,31.70
2022-08-24T11:44:32.375Z,32.20
2022-08-24T11:47:30.376Z,32.70
2022-08-24T11:50:23.034Z,32.20
2022-08-24T11:53:02.035Z,32.00
2022-08-24T11:55:57.210Z,32.00
2022-08-24T11:58:51.222Z,31.90
2022-08-24T12:01:29.160Z,33.10
2022-08-24T12:04:20.560Z,33.10
2022-08-24T12:07:03.066Z,33.20
2022-08-24T12:09:54.559Z,32.90
2022-08-24T12:12:36.815Z,33.10
2022-08-24T12:15:36.703Z,33.60
2022-08-24T12:18:28.408Z,33.70
2022-08-24T12:20:57.869Z,33.00
2022-08-24T12:23:43.704Z,33.00
2022-08-24T12:26:26.557Z,32.90
2022-08-24T12:29:09.017Z,33.20
2022-08-24T12:31:58.090Z,33.70
2022-08-24T12:34:58.544Z,33.50
2022-08-24T12:37:55.412Z,33.00
2022-08-24T12:40:42.134Z,32.50
2022-08-24T12:43:17.583Z,32.80
2022-08-24T12:45:46.161Z,33.00
2022-08-24T12:48:26.789Z,33.70
2022-08-24T12:51:24.397Z,33.50
2022-08-24T12:54:22.468Z,33.50
2022-08-24T12:57:34.612Z,33.70
2022-08-24T13:00:13.632Z,32.80
2022-08-24T13:02:47.719Z,32.60
2022-08-24T13:05:19.282Z,32.70
2022-08-24T13:07:50.934Z,32.80
2022-08-24T13:10:24.624Z,32.60
2022-08-24T13:13:10.369Z,32.60
2022-08-24T13:15:38.133Z,32.80
2022-08-24T13:18:13.606Z,33.20
2022-08-24T13:20:43.888Z,33.40
2022-08-24T13:23:18.786Z,33.60
2022-08-24T13:25:51.960Z,33.80
2022-08-24T13:28:24.674Z,34.30
2022-08-24T13:31:07.375Z,33.50
2022-08-24T13:34:24.824Z,33.20
2022-08-24T13:37:14.419Z,34.00
2022-08-24T13:40:12.994Z,34.20
2022-08-24T13:42:43.252Z,34.50
2022-08-24T13:45:35.494Z,34.80
2022-08-24T13:48:11.968Z,33.50
2022-08-24T13:51:20.785Z,33.30
2022-08-24T13:54:22.410Z,32.70
2022-08-24T13:57:08.368Z,32.70
2022-08-24T14:00:06.987Z,32.40
2022-08-24T14:03:12.205Z,32.50
2022-08-24T14:05:54.210Z,32.80
2022-08-24T14:09:09.254Z,33.30
2022-08-24T14:12:09.725Z,33.10
2022-08-24T14:14:52.810Z,33.30
2022-08-24T14:18:02.079Z,32.90
2022-08-24T14:21:01.879Z,32.80
2022-08-24T14:23:34.642Z,31.80
2022-08-24T14:26:40.045Z,31.90
2022-08-24T14:29:19.681Z,31.70
2022-08-24T14:32:08.501Z,31.60
2022-08-24T14:35:14.253Z,31.60
2022-08-24T14:37:59.615Z,32.30
2022-08-24T14:40:37.894Z,31.70
2022-08-24T14:43:32.127Z,30.70
2022-08-24T14:46:16.466Z,30.30
2022-08-24T14:49:18.316Z,29.70
2022-08-24T14:52:09.189Z,29.00
2022-08-24T14:55:00.902Z,27.80
2022-08-24T14:57:59.958Z,27.00
2022-08-24T15:01:07.340Z,26.70
2022-08-24T15:03:54.062Z,26.30
2022-08-24T15:06:45.335Z,26.30
2022-08-24T15:09:18.782Z,26.00
2022-08-24T15:11:51.279Z,25.70
2022-08-24T15:14:37.695Z,25.60
2022-08-24T15:17:15.620Z,25.50
2022-08-24T15:20:00.912Z,25.50
2022-08-24T15:23:09.883Z,25.50
2022-08-24T15:25:46.610Z,25.50
2022-08-24T15:28:22.096Z,25.60
2022-08-24T15:31:19.957Z,25.60
2022-08-24T15:34:02.098Z,25.50
2022-08-24T15:36:33.224Z,25.30
2022-08-24T15:39:03.791Z,25.20
2022-08-24T15:41:39.920Z,25.10
2022-08-24T15:44:24.576Z,25.20
2022-08-24T15:46:56.852Z,25.00
2022-08-24T15:49:45.192Z,25.00
2022-08-24T15:52:40.975Z,24.90
2022-08-24T15:55:36.682Z,24.90
2022-08-24T15:58:19.720Z,24.80
2022-08-24T16:01:06.973Z,24.80
2022-08-24T16:03:50.875Z,24.70
2022-08-24T16:06:33.556Z,24.80
2022-08-24T16:09:20.156Z,24.80
2022-08-24T16:12:09.456Z,24.80
2022-08-24T16:14:46.885Z,24.60
2022-08-24T16:17:36.208Z,24.60
2022-08-24T16:20:08.053Z,24.50
2022-08-24T16:22:39.308Z,24.40
2022-08-24T16:25:17.823Z,24.30
2022-08-24T16:28:00.604Z,24.20
2022-08-24T16:31:00.791Z,24.20
2022-08-24T16:33:44.310Z,24.10
2022-08-24T16:36:15.658Z,24.00
2022-08-24T16:38:49.141Z,23.90
2022-08-24T16:41:19.666Z,23.90
2022-08-24T16:43:48.168Z,23.80
2022-08-24T16:46:21.016Z,23.80
2022-08-24T16:48:49.206Z,23.70
2022-08-24T16:51:16.238Z,23.60
2022-08-24T16:53:44.141Z,23.60
2022-08-24T16:56:14.881Z,23.50
2022-08-24T16:58:47.399Z,23.40
2022-08-24T17:01:14.903Z,23.30
2022-08-24T17:03:42.667Z,23.20
2022-08-24T17:06:12.500Z,23.20
2022-08-24T17:08:41.084Z,23.10
2022-08-24T17:11:08.922Z,23.10
2022-08-24T17:13:49.481Z,22.90
2022-08-24T17:16:18.636Z,22.90
2022-08-24T17:18:47.006Z,22.70
2022-08-24T17:21:14.325Z,22.60
2022-08-24T17:23:42.661Z,22.60
2022-08-24T17:26:20.346Z,22.60
2022-08-24T17:28:52.558Z,22.60
2022-08-24T17:31:20.514Z,22.50
2022-08-24T17:33:48.674Z,22.50
2022-08-24T17:36:19.479Z,22.40
2022-08-24T17:38:55.271Z,22.30
2022-08-24T17:41:25.686Z,22.30
2022-08-24T17:43:55.773Z,22.20
2022-08-24T17:46:24.299Z,22.10
2022-08-24T17:48:52.603Z,22.00
2022-08-24T17:51:20.500Z,21.80
2022-08-24T17:53:48.440Z,21.70
2022-08-24T17:56:17.182Z,21.60
2022-08-24T17:59:03.510Z,21.40
2022-08-24T18:01:32.215Z,21.40
2022-08-24T18:03:59.387Z,21.30
2022-08-24T18:06:27.962Z,21.10
2022-08-24T18:08:58.257Z,21.00
2022-08-24T18:11:26.538Z,20.90
2022-08-24T18:13:54.634Z,20.80
2022-08-24T18:16:27.900Z,20.70
2022-08-24T18:18:56.001Z,20.70
2022-08-24T18:21:24.258Z,20.60
2022-08-24T18:23:51.654Z,20.50
2022-08-24T18:26:25.863Z,20.30
2022-08-24T18:29:00.259Z,20.30
2022-08-24T18:31:30.638Z,20.20
2022-08-24T18:33:58.971Z,20.10
2022-08-24T18:36:26.367Z,20.00
2022-08-24T18:38:54.481Z,19.90
2022-08-24T18:41:21.834Z,19.80
2022-08-24T18:43:49.675Z,19.70
2022-08-24T18:46:17.390Z,19.70
2022-08-24T18:48:45.894Z,19.50
2022-08-24T18:51:18.684Z,19.50
2022-08-24T18:53:47.547Z,19.40
2022-08-24T18:56:16.181Z,19.30
2022-08-24T18:58:44.402Z,19.20
2022-08-24T19:01:12.458Z,19.20
2022-08-24T19:03:41.253Z,19.10
2022-08-24T19:06:09.517Z,19.00
2022-08-24T19:08:36.919Z,18.90
2022-08-24T19:11:06.996Z,18.80
2022-08-24T19:13:34.500Z,18.70
2022-08-24T19:16:02.688Z,18.70
2022-08-24T19:18:30.359Z,18.60
2022-08-24T19:20:59.696Z,18.50
2022-08-24T19:23:32.303Z,18.40
2022-08-24T19:26:00.970Z,18.40
2022-08-24T19:28:29.519Z,18.30
2022-08-24T19:31:02.637Z,18.30
2022-08-24T19:33:44.798Z,18.20
2022-08-24T19:36:14.918Z,18.10
2022-08-24T19:38:42.476Z,18.00
2022-08-24T19:41:12.728Z,17.90
2022-08-24T19:44:00.710Z,17.80
2022-08-24T19:46:30.025Z,17.80
2022-08-24T19:48:57.378Z,17.70
2022-08-24T19:51:26.660Z,17.60
2022-08-24T19:53:54.496Z,17.50
2022-08-24T19:56:23.685Z,17.50
2022-08-24T19:58:57.539Z,17.40
2022-08-24T20:01:34.516Z,17.40
2022-08-24T20:04:06.323Z,17.30
2022-08-24T20:06:35.909Z,17.30
2022-08-24T20:09:04.993Z,17.20
2022-08-24T20:11:33.293Z,17.20
2022-08-24T20:14:00.498Z,17.10
2022-08-24T20:16:36.057Z,17.00
2022-08-24T20:19:05.143Z,17.00
2022-08-24T20:21:34.260Z,16.90
2022-08-24T20:24:01.958Z,16.80
2022-08-24T20:26:34.622Z,16.70
2022-08-24T20:29:03.565Z,16.50
2022-08-24T20:31:31.878Z,16.50
2022-08-24T20:33:59.454Z,16.40
2022-08-24T20:36:41.168Z,16.40
2022-08-24T20:39:12.866Z,16.30
2022-08-24T20:41:40.843Z,16.30
2022-08-24T20:44:11.757Z,16.30
2022-08-24T20:46:40.542Z,16.20
2022-08-24T20:49:15.211Z,16.10
2022-08-24T20:51:44.402Z,16.00
2022-08-24T20:54:12.478Z,15.90
2022-08-24T20:56:40.519Z,15.90
2022-08-24T20:59:09.923Z,15.80
2022-08-24T21:01:42.844Z,15.70
2022-08-24T21:04:11.144Z,15.70
2022-08-24T21:06:42.341Z,15.80
2022-08-24T21:09:14.451Z,15.70
2022-08-24T21:11:43.627Z,15.70
2022-08-24T21:14:10.494Z,15.70
2022-08-24T21:16:41.713Z,15.60
2022-08-24T21:19:12.500Z,15.50
2022-08-24T21:21:42.574Z,15.50
2022-08-24T21:24:11.089Z,15.50
2022-08-24T21:26:39.225Z,15.50
2022-08-24T21:29:08.289Z,15.50
2022-08-24T21:31:36.883Z,15.50
2022-08-24T21:34:24.344Z,15.40
2022-08-24T21:36:54.220Z,15.30
2022-08-24T21:39:21.564Z,15.10
2022-08-24T21:41:49.637Z,15.00
2022-08-24T21:44:16.897Z,14.90
2022-08-24T21:46:45.424Z,15.00
2022-08-24T21:49:12.568Z,15.00
2022-08-24T21:51:41.108Z,15.10
2022-08-24T21:54:08.642Z,15.10
2022-08-24T21:56:36.592Z,15.10
2022-08-24T21:59:04.026Z,15.10
2022-08-24T22:01:32.277Z,15.10
2022-08-24T22:04:00.896Z,15.10
2022-08-24T22:06:31.497Z,15.10
2022-08-24T22:09:00.418Z,15.10
2022-08-24T22:11:29.836Z,15.00
2022-08-24T22:13:58.132Z,14.90
2022-08-24T22:16:25.780Z,14.80
2022-08-24T22:18:54.088Z,14.80
2022-08-24T22:21:26.033Z,14.70
2022-08-24T22:23:55.257Z,14.60
2022-08-24T22:26:27.878Z,14.50
2022-08-24T22:28:56.767Z,14.50
2022-08-24T22:31:36.082Z,14.50
2022-08-24T22:34:07.053Z,14.40
2022-08-24T22:36:36.113Z,14.40
2022-08-24T22:39:05.165Z,14.30
2022-08-24T22:41:33.716Z,14.30
2022-08-24T22:44:21.139Z,14.30
2022-08-24T22:47:02.565Z,14.30
2022-08-24T22:49:37.977Z,14.40
2022-08-24T22:52:07.278Z,14.30
2022-08-24T22:54:35.702Z,14.30
2022-08-24T22:57:03.433Z,14.20
2022-08-24T22:59:37.437Z,14.10
2022-08-24T23:02:15.556Z,14.10
2022-08-24T23:04:45.838Z,14.10
2022-08-24T23:07:14.816Z,14.10
2022-08-24T23:09:45.453Z,14.10
2022-08-24T23:12:17.707Z,14.10
2022-08-24T23:14:45.077Z,14.10
2022-08-24T23:17:14.297Z,14.00
2022-08-24T23:20:00.578Z,14.00
2022-08-24T23:22:34.977Z,13.90
2022-08-24T23:25:04.855Z,13.80
2022-08-24T23:27:38.083Z,13.70
2022-08-24T23:30:12.326Z,13.70
2022-08-24T23:32:39.799Z,13.80
2022-08-24T23:35:08.205Z,13.80
2022-08-24T23:37:36.391Z,13.80
2022-08-24T23:40:04.443Z,13.80
2022-08-24T23:42:32.620Z,13.70
2022-08-24T23:44:59.581Z,13.70
2022-08-24T23:47:27.971Z,13.50
2022-08-24T23:49:55.630Z,13.60
2022-08-24T23:52:27.298Z,13.80
2022-08-24T23:55:03.554Z,13.70
2022-08-24T23:57:47.215Z,13.70
